Huggers Landing, Alabama
Current Conditions -  °F | °C
As of 1:35 AM on Thursday 23 Oct 2014 (Local Time) from KJKA Reporting Station
Clear Clear  
Wind Chill: 53°   Ceiling: Unl
Heat Index: 53°   Visibility: 10mi
Dew Point: 46°   Wind: 3mph
Humidity: 78%   Direction: 30°NNE
Pressure: 30.06"   Gusts: NA
Location:  30.3794°N, 87.7151°W
Report Text: KJKA 230635Z AUTO 03003KT 10SM CLR 12/08 A3006 RMK AO2 T01160078
Loading
Personal Weather Stations






























Interactive Weather Map
Tropical Storm Tracking
New forecast layout! Learn more

10-Day Weather Forecast

Advertisements
Track Severe Weather on mobile